sensor_id;sensor_type;location;lat;lon;timestamp;pressure;altitude;pressure_sealevel;temperature;humidity
68077;BME280;54866;53.458;14.540;2023-02-19T00:00:17;100426.54;;;1.55;100.00
68077;BME280;54866;53.458;14.540;2023-02-19T00:02:47;100428.22;;;1.56;100.00
68077;BME280;54866;53.458;14.540;2023-02-19T00:05:19;100421.27;;;1.57;100.00
68077;BME280;54866;53.458;14.540;2023-02-19T00:07:49;100413.89;;;1.58;100.00
68077;BME280;54866;53.458;14.540;2023-02-19T00:10:18;100409.71;;;1.59;100.00
68077;BME280;54866;53.458;14.540;2023-02-19T00:12:48;100408.79;;;1.60;100.00
68077;BME280;54866;53.458;14.540;2023-02-19T00:15:18;100410.50;;;1.61;100.00
68077;BME280;54866;53.458;14.540;2023-02-19T00:17:47;100406.34;;;1.60;100.00
68077;BME280;54866;53.458;14.540;2023-02-19T00:20:17;100407.35;;;1.61;100.00
68077;BME280;54866;53.458;14.540;2023-02-19T00:22:47;100406.47;;;1.61;100.00
68077;BME280;54866;53.458;14.540;2023-02-19T00:25:16;100417.36;;;1.62;100.00
68077;BME280;54866;53.458;14.540;2023-02-19T00:27:46;100416.36;;;1.61;100.00
68077;BME280;54866;53.458;14.540;2023-02-19T00:30:16;100421.21;;;1.62;100.00
68077;BME280;54866;53.458;14.540;2023-02-19T00:32:50;100416.06;;;1.60;100.00
68077;BME280;54866;53.458;14.540;2023-02-19T00:35:20;100415.34;;;1.61;100.00
68077;BME280;54866;53.458;14.540;2023-02-19T00:37:49;100411.09;;;1.59;100.00
68077;BME280;54866;53.458;14.540;2023-02-19T00:40:19;100414.12;;;1.57;100.00
68077;BME280;54866;53.458;14.540;2023-02-19T00:42:49;100414.05;;;1.55;100.00
68077;BME280;54866;53.458;14.540;2023-02-19T00:45:19;100413.13;;;1.52;100.00
68077;BME280;54866;53.458;14.540;2023-02-19T00:47:49;100408.97;;;1.48;100.00
68077;BME280;54866;53.458;14.540;2023-02-19T00:50:19;100407.01;;;1.45;100.00
68077;BME280;54866;53.458;14.540;2023-02-19T00:52:48;100410.43;;;1.42;100.00
68077;BME280;54866;53.458;14.540;2023-02-19T00:55:18;100405.56;;;1.39;100.00
68077;BME280;54866;53.458;14.540;2023-02-19T00:57:47;100405.86;;;1.36;100.00
68077;BME280;54866;53.458;14.540;2023-02-19T01:00:17;100403.36;;;1.34;100.00
68077;BME280;54866;53.458;14.540;2023-02-19T01:02:47;100404.30;;;1.32;100.00
68077;BME280;54866;53.458;14.540;2023-02-19T01:05:16;100400.55;;;1.31;100.00
68077;BME280;54866;53.458;14.540;2023-02-19T01:07:46;100401.80;;;1.30;100.00
68077;BME280;54866;53.458;14.540;2023-02-19T01:10:16;100400.64;;;1.29;100.00
68077;BME280;54866;53.458;14.540;2023-02-19T01:12:45;100397.71;;;1.28;100.00
68077;BME280;54866;53.458;14.540;2023-02-19T01:15:15;100392.73;;;1.27;100.00
68077;BME280;54866;53.458;14.540;2023-02-19T01:17:45;100392.03;;;1.27;100.00
68077;BME280;54866;53.458;14.540;2023-02-19T01:20:14;100383.85;;;1.28;100.00
68077;BME280;54866;53.458;14.540;2023-02-19T01:22:44;100382.78;;;1.28;100.00
68077;BME280;54866;53.458;14.540;2023-02-19T01:25:13;100385.54;;;1.29;100.00
68077;BME280;54866;53.458;14.540;2023-02-19T01:27:43;100384.45;;;1.30;100.00
68077;BME280;54866;53.458;14.540;2023-02-19T01:30:13;100379.19;;;1.31;100.00
68077;BME280;54866;53.458;14.540;2023-02-19T01:32:42;100374.27;;;1.32;100.00
68077;BME280;54866;53.458;14.540;2023-02-19T01:35:12;100365.91;;;1.33;100.00
68077;BME280;54866;53.458;14.540;2023-02-19T01:37:41;100368.77;;;1.35;100.00
68077;BME280;54866;53.458;14.540;2023-02-19T01:40:11;100360.89;;;1.36;100.00
68077;BME280;54866;53.458;14.540;2023-02-19T01:42:44;100356.67;;;1.37;100.00
68077;BME280;54866;53.458;14.540;2023-02-19T01:45:26;100353.17;;;1.38;100.00
68077;BME280;54866;53.458;14.540;2023-02-19T01:48:03;100353.14;;;1.39;100.00
68077;BME280;54866;53.458;14.540;2023-02-19T01:50:37;100352.79;;;1.39;100.00
68077;BME280;54866;53.458;14.540;2023-02-19T01:53:11;100342.02;;;1.40;100.00
68077;BME280;54866;53.458;14.540;2023-02-19T01:55:42;100344.27;;;1.39;100.00
68077;BME280;54866;53.458;14.540;2023-02-19T01:58:15;100354.33;;;1.40;100.00
68077;BME280;54866;53.458;14.540;2023-02-19T02:00:44;100356.83;;;1.38;100.00
68077;BME280;54866;53.458;14.540;2023-02-19T02:03:14;100354.42;;;1.37;100.00
68077;BME280;54866;53.458;14.540;2023-02-19T02:05:52;100345.77;;;1.37;100.00
68077;BME280;54866;53.458;14.540;2023-02-19T02:08:24;100344.40;;;1.36;100.00
68077;BME280;54866;53.458;14.540;2023-02-19T02:11:12;100336.44;;;1.36;100.00
68077;BME280;54866;53.458;14.540;2023-02-19T02:13:41;100333.58;;;1.37;100.00
68077;BME280;54866;53.458;14.540;2023-02-19T02:16:21;100331.46;;;1.38;100.00
68077;BME280;54866;53.458;14.540;2023-02-19T02:19:04;100327.13;;;1.38;100.00
68077;BME280;54866;53.458;14.540;2023-02-19T02:21:56;100325.41;;;1.37;100.00
68077;BME280;54866;53.458;14.540;2023-02-19T02:24:55;100325.05;;;1.38;100.00
68077;BME280;54866;53.458;14.540;2023-02-19T02:27:40;100320.52;;;1.38;100.00
68077;BME280;54866;53.458;14.540;2023-02-19T02:30:22;100315.45;;;1.39;100.00
68077;BME280;54866;53.458;14.540;2023-02-19T02:33:02;100310.75;;;1.40;100.00
68077;BME280;54866;53.458;14.540;2023-02-19T02:35:37;100306.25;;;1.40;100.00
68077;BME280;54866;53.458;14.540;2023-02-19T02:38:10;100307.79;;;1.40;100.00
68077;BME280;54866;53.458;14.540;2023-02-19T02:40:43;100311.15;;;1.38;100.00
68077;BME280;54866;53.458;14.540;2023-02-19T02:43:13;100313.07;;;1.38;100.00
68077;BME280;54866;53.458;14.540;2023-02-19T02:45:42;100316.92;;;1.37;100.00
68077;BME280;54866;53.458;14.540;2023-02-19T02:48:26;100315.91;;;1.37;100.00
68077;BME280;54866;53.458;14.540;2023-02-19T02:51:00;100310.13;;;1.34;100.00
68077;BME280;54866;53.458;14.540;2023-02-19T02:53:36;100313.78;;;1.34;100.00
68077;BME280;54866;53.458;14.540;2023-02-19T02:56:27;100314.36;;;1.33;100.00
68077;BME280;54866;53.458;14.540;2023-02-19T02:58:59;100317.02;;;1.32;100.00
68077;BME280;54866;53.458;14.540;2023-02-19T03:01:32;100313.52;;;1.32;100.00
68077;BME280;54866;53.458;14.540;2023-02-19T03:04:25;100311.65;;;1.32;100.00
68077;BME280;54866;53.458;14.540;2023-02-19T03:06:56;100313.27;;;1.31;100.00
68077;BME280;54866;53.458;14.540;2023-02-19T03:09:33;100317.67;;;1.33;100.00
68077;BME280;54866;53.458;14.540;2023-02-19T03:12:12;100320.23;;;1.34;100.00
68077;BME280;54866;53.458;14.540;2023-02-19T03:15:05;100318.92;;;1.35;100.00
68077;BME280;54866;53.458;14.540;2023-02-19T03:17:53;100321.48;;;1.37;100.00
68077;BME280;54866;53.458;14.540;2023-02-19T03:20:45;100320.55;;;1.37;100.00
68077;BME280;54866;53.458;14.540;2023-02-19T03:23:18;100325.08;;;1.37;100.00
68077;BME280;54866;53.458;14.540;2023-02-19T03:26:10;100327.98;;;1.38;100.00
68077;BME280;54866;53.458;14.540;2023-02-19T03:28:42;100326.24;;;1.39;100.00
68077;BME280;54866;53.458;14.540;2023-02-19T03:31:31;100322.80;;;1.38;100.00
68077;BME280;54866;53.458;14.540;2023-02-19T03:34:04;100329.84;;;1.40;100.00
68077;BME280;54866;53.458;14.540;2023-02-19T03:36:38;100331.88;;;1.41;100.00
68077;BME280;54866;53.458;14.540;2023-02-19T03:39:10;100331.38;;;1.40;100.00
68077;BME280;54866;53.458;14.540;2023-02-19T03:41:46;100331.54;;;1.41;100.00
68077;BME280;54866;53.458;14.540;2023-02-19T03:44:24;100335.73;;;1.40;100.00
68077;BME280;54866;53.458;14.540;2023-02-19T03:47:04;100334.52;;;1.40;100.00
68077;BME280;54866;53.458;14.540;2023-02-19T03:49:41;100336.98;;;1.39;100.00
68077;BME280;54866;53.458;14.540;2023-02-19T03:52:17;100332.48;;;1.39;100.00
68077;BME280;54866;53.458;14.540;2023-02-19T03:54:53;100329.05;;;1.38;100.00
68077;BME280;54866;53.458;14.540;2023-02-19T03:57:32;100330.66;;;1.37;100.00
68077;BME280;54866;53.458;14.540;2023-02-19T04:00:09;100331.19;;;1.37;100.00
68077;BME280;54866;53.458;14.540;2023-02-19T04:02:44;100336.02;;;1.37;100.00
68077;BME280;54866;53.458;14.540;2023-02-19T04:05:17;100333.04;;;1.38;100.00
68077;BME280;54866;53.458;14.540;2023-02-19T04:07:49;100334.20;;;1.39;100.00
68077;BME280;54866;53.458;14.540;2023-02-19T04:10:22;100332.19;;;1.42;100.00
68077;BME280;54866;53.458;14.540;2023-02-19T04:12:56;100333.48;;;1.44;100.00
68077;BME280;54866;53.458;14.540;2023-02-19T04:15:31;100338.60;;;1.45;100.00
68077;BME280;54866;53.458;14.540;2023-02-19T04:18:05;100331.91;;;1.47;100.00
68077;BME280;54866;53.458;14.540;2023-02-19T04:20:38;100332.15;;;1.50;100.00
68077;BME280;54866;53.458;14.540;2023-02-19T04:23:09;100331.93;;;1.50;100.00
68077;BME280;54866;53.458;14.540;2023-02-19T04:25:42;100329.51;;;1.50;100.00
68077;BME280;54866;53.458;14.540;2023-02-19T04:28:13;100325.42;;;1.53;100.00
68077;BME280;54866;53.458;14.540;2023-02-19T04:30:44;100330.22;;;1.54;100.00
68077;BME280;54866;53.458;14.540;2023-02-19T04:33:14;100330.14;;;1.56;100.00
68077;BME280;54866;53.458;14.540;2023-02-19T04:35:43;100330.08;;;1.57;100.00
68077;BME280;54866;53.458;14.540;2023-02-19T04:38:13;100329.68;;;1.59;100.00
68077;BME280;54866;53.458;14.540;2023-02-19T04:40:42;100326.14;;;1.60;100.00
68077;BME280;54866;53.458;14.540;2023-02-19T04:43:12;100329.41;;;1.61;100.00
68077;BME280;54866;53.458;14.540;2023-02-19T04:45:41;100329.19;;;1.61;100.00
68077;BME280;54866;53.458;14.540;2023-02-19T04:48:11;100325.80;;;1.63;100.00
68077;BME280;54866;53.458;14.540;2023-02-19T04:50:40;100320.69;;;1.65;100.00
68077;BME280;54866;53.458;14.540;2023-02-19T04:53:10;100314.88;;;1.63;100.00
68077;BME280;54866;53.458;14.540;2023-02-19T04:55:40;100323.36;;;1.67;100.00
68077;BME280;54866;53.458;14.540;2023-02-19T04:58:09;100327.85;;;1.67;100.00
68077;BME280;54866;53.458;14.540;2023-02-19T05:00:39;100319.67;;;1.68;100.00
68077;BME280;54866;53.458;14.540;2023-02-19T05:03:08;100327.09;;;1.69;100.00
68077;BME280;54866;53.458;14.540;2023-02-19T05:05:38;100328.13;;;1.69;100.00
68077;BME280;54866;53.458;14.540;2023-02-19T05:08:08;100327.46;;;1.68;100.00
68077;BME280;54866;53.458;14.540;2023-02-19T05:10:37;100327.95;;;1.69;100.00
68077;BME280;54866;53.458;14.540;2023-02-19T05:13:07;100330.39;;;1.69;100.00
68077;BME280;54866;53.458;14.540;2023-02-19T05:15:37;100334.27;;;1.68;100.00
68077;BME280;54866;53.458;14.540;2023-02-19T05:18:06;100335.44;;;1.69;100.00
68077;BME280;54866;53.458;14.540;2023-02-19T05:20:36;100328.72;;;1.67;100.00
68077;BME280;54866;53.458;14.540;2023-02-19T05:23:06;100327.87;;;1.67;100.00
68077;BME280;54866;53.458;14.540;2023-02-19T05:25:35;100337.92;;;1.67;100.00
68077;BME280;54866;53.458;14.540;2023-02-19T05:28:05;100340.89;;;1.67;100.00
68077;BME280;54866;53.458;14.540;2023-02-19T05:30:46;100344.90;;;1.67;100.00
68077;BME280;54866;53.458;14.540;2023-02-19T05:33:17;100347.14;;;1.67;100.00
68077;BME280;54866;53.458;14.540;2023-02-19T05:35:49;100351.48;;;1.67;100.00
68077;BME280;54866;53.458;14.540;2023-02-19T05:38:19;100354.92;;;1.68;100.00
68077;BME280;54866;53.458;14.540;2023-02-19T05:40:49;100355.96;;;1.68;100.00
68077;BME280;54866;53.458;14.540;2023-02-19T05:43:19;100361.48;;;1.68;100.00
68077;BME280;54866;53.458;14.540;2023-02-19T05:45:48;100367.22;;;1.68;100.00
68077;BME280;54866;53.458;14.540;2023-02-19T05:48:18;100363.72;;;1.69;100.00
68077;BME280;54866;53.458;14.540;2023-02-19T05:50:47;100371.31;;;1.70;100.00
68077;BME280;54866;53.458;14.540;2023-02-19T05:53:17;100376.15;;;1.71;100.00
68077;BME280;54866;53.458;14.540;2023-02-19T05:55:46;100371.28;;;1.71;100.00
68077;BME280;54866;53.458;14.540;2023-02-19T05:58:16;100371.77;;;1.68;100.00
68077;BME280;54866;53.458;14.540;2023-02-19T06:00:46;100380.99;;;1.71;100.00
68077;BME280;54866;53.458;14.540;2023-02-19T06:03:15;100379.05;;;1.72;100.00
68077;BME280;54866;53.458;14.540;2023-02-19T06:05:45;100379.38;;;1.72;100.00
68077;BME280;54866;53.458;14.540;2023-02-19T06:08:15;100376.48;;;1.71;100.00
68077;BME280;54866;53.458;14.540;2023-02-19T06:10:45;100383.36;;;1.72;100.00
68077;BME280;54866;53.458;14.540;2023-02-19T06:13:14;100390.14;;;1.72;100.00
68077;BME280;54866;53.458;14.540;2023-02-19T06:15:44;100396.58;;;1.72;100.00
68077;BME280;54866;53.458;14.540;2023-02-19T06:18:13;100393.79;;;1.72;100.00
68077;BME280;54866;53.458;14.540;2023-02-19T06:20:43;100394.48;;;1.72;100.00
68077;BME280;54866;53.458;14.540;2023-02-19T06:23:12;100393.10;;;1.72;100.00
68077;BME280;54866;53.458;14.540;2023-02-19T06:25:42;100397.59;;;1.72;100.00
68077;BME280;54866;53.458;14.540;2023-02-19T06:28:12;100398.30;;;1.72;100.00
68077;BME280;54866;53.458;14.540;2023-02-19T06:30:41;100400.86;;;1.73;100.00
68077;BME280;54866;53.458;14.540;2023-02-19T06:33:11;100406.02;;;1.75;100.00
68077;BME280;54866;53.458;14.540;2023-02-19T06:35:41;100413.47;;;1.75;100.00
68077;BME280;54866;53.458;14.540;2023-02-19T06:38:10;100412.58;;;1.75;100.00
68077;BME280;54866;53.458;14.540;2023-02-19T06:40:40;100409.91;;;1.77;100.00
68077;BME280;54866;53.458;14.540;2023-02-19T06:43:09;100418.34;;;1.78;100.00
68077;BME280;54866;53.458;14.540;2023-02-19T06:45:39;100418.36;;;1.78;100.00
68077;BME280;54866;53.458;14.540;2023-02-19T06:48:08;100415.41;;;1.81;100.00
68077;BME280;54866;53.458;14.540;2023-02-19T06:50:38;100414.70;;;1.82;100.00
68077;BME280;54866;53.458;14.540;2023-02-19T06:53:07;100421.16;;;1.85;100.00
68077;BME280;54866;53.458;14.540;2023-02-19T06:55:38;100424.92;;;1.87;100.00
68077;BME280;54866;53.458;14.540;2023-02-19T06:58:08;100428.27;;;1.89;100.00
68077;BME280;54866;53.458;14.540;2023-02-19T07:00:38;100431.31;;;1.90;100.00
68077;BME280;54866;53.458;14.540;2023-02-19T07:03:07;100432.75;;;1.94;100.00
68077;BME280;54866;53.458;14.540;2023-02-19T07:05:37;100436.27;;;1.96;100.00
68077;BME280;54866;53.458;14.540;2023-02-19T07:08:07;100441.49;;;2.00;100.00
68077;BME280;54866;53.458;14.540;2023-02-19T07:10:36;100442.02;;;2.03;100.00
68077;BME280;54866;53.458;14.540;2023-02-19T07:13:06;100440.81;;;2.06;100.00
68077;BME280;54866;53.458;14.540;2023-02-19T07:15:35;100443.15;;;2.13;100.00
68077;BME280;54866;53.458;14.540;2023-02-19T07:18:05;100445.02;;;2.17;100.00
68077;BME280;54866;53.458;14.540;2023-02-19T07:20:37;100454.77;;;2.24;100.00
68077;BME280;54866;53.458;14.540;2023-02-19T07:23:07;100459.23;;;2.29;100.00
68077;BME280;54866;53.458;14.540;2023-02-19T07:25:37;100459.09;;;2.35;100.00
68077;BME280;54866;53.458;14.540;2023-02-19T07:28:07;100464.59;;;2.44;100.00
68077;BME280;54866;53.458;14.540;2023-02-19T07:30:37;100471.98;;;2.53;100.00
68077;BME280;54866;53.458;14.540;2023-02-19T07:33:06;100472.09;;;2.79;100.00
68077;BME280;54866;53.458;14.540;2023-02-19T07:35:36;100464.83;;;2.88;100.00
68077;BME280;54866;53.458;14.540;2023-02-19T07:38:05;100466.09;;;2.94;100.00
68077;BME280;54866;53.458;14.540;2023-02-19T07:40:35;100472.64;;;2.99;100.00
68077;BME280;54866;53.458;14.540;2023-02-19T07:43:05;100472.08;;;3.04;100.00
68077;BME280;54866;53.458;14.540;2023-02-19T07:45:34;100478.17;;;3.14;100.00
68077;BME280;54866;53.458;14.540;2023-02-19T07:48:04;100479.80;;;3.26;100.00
68077;BME280;54866;53.458;14.540;2023-02-19T07:50:34;100487.98;;;3.36;100.00
68077;BME280;54866;53.458;14.540;2023-02-19T07:53:03;100489.56;;;3.49;100.00
68077;BME280;54866;53.458;14.540;2023-02-19T07:55:33;100487.97;;;3.76;100.00
68077;BME280;54866;53.458;14.540;2023-02-19T07:58:03;100492.63;;;3.93;99.96
68077;BME280;54866;53.458;14.540;2023-02-19T08:00:32;100500.74;;;4.14;99.88
68077;BME280;54866;53.458;14.540;2023-02-19T08:03:02;100500.77;;;4.51;98.77
68077;BME280;54866;53.458;14.540;2023-02-19T08:05:33;100500.41;;;5.03;96.09
68077;BME280;54866;53.458;14.540;2023-02-19T08:08:06;100496.64;;;6.30;89.28
68077;BME280;54866;53.458;14.540;2023-02-19T08:10:36;100493.17;;;7.26;85.14
68077;BME280;54866;53.458;14.540;2023-02-19T08:13:24;100501.44;;;7.97;82.39
68077;BME280;54866;53.458;14.540;2023-02-19T08:15:56;100507.21;;;8.78;79.10
68077;BME280;54866;53.458;14.540;2023-02-19T08:18:37;100510.46;;;9.21;75.92
68077;BME280;54866;53.458;14.540;2023-02-19T08:21:06;100512.58;;;9.56;72.90
68077;BME280;54866;53.458;14.540;2023-02-19T08:23:36;100526.13;;;9.96;71.79
68077;BME280;54866;53.458;14.540;2023-02-19T08:26:06;100531.27;;;10.29;68.63
68077;BME280;54866;53.458;14.540;2023-02-19T08:28:36;100533.98;;;11.57;66.85
68077;BME280;54866;53.458;14.540;2023-02-19T08:31:08;100533.13;;;12.13;63.56
68077;BME280;54866;53.458;14.540;2023-02-19T08:33:38;100544.62;;;11.52;64.47
68077;BME280;54866;53.458;14.540;2023-02-19T08:36:10;100550.36;;;11.30;63.70
68077;BME280;54866;53.458;14.540;2023-02-19T08:38:39;100551.05;;;11.41;63.23
68077;BME280;54866;53.458;14.540;2023-02-19T08:41:10;100551.31;;;11.65;61.45
68077;BME280;54866;53.458;14.540;2023-02-19T08:43:40;100556.06;;;11.80;59.98
68077;BME280;54866;53.458;14.540;2023-02-19T08:46:11;100560.63;;;12.46;60.26
68077;BME280;54866;53.458;14.540;2023-02-19T08:48:41;100567.30;;;13.03;56.85
68077;BME280;54866;53.458;14.540;2023-02-19T08:51:11;100563.38;;;14.01;53.85
68077;BME280;54866;53.458;14.540;2023-02-19T08:53:41;100565.50;;;14.85;49.04
68077;BME280;54866;53.458;14.540;2023-02-19T08:56:12;100574.06;;;15.72;50.44
68077;BME280;54866;53.458;14.540;2023-02-19T08:58:43;100568.48;;;16.24;47.11
68077;BME280;54866;53.458;14.540;2023-02-19T09:01:15;100571.09;;;16.56;43.75
68077;BME280;54866;53.458;14.540;2023-02-19T09:03:46;100581.23;;;16.64;44.13
68077;BME280;54866;53.458;14.540;2023-02-19T09:06:18;100586.13;;;17.03;45.04
68077;BME280;54866;53.458;14.540;2023-02-19T09:08:48;100580.23;;;16.46;40.44
68077;BME280;54866;53.458;14.540;2023-02-19T09:11:18;100594.63;;;16.60;42.09
68077;BME280;54866;53.458;14.540;2023-02-19T09:13:47;100598.44;;;17.01;40.48
68077;BME280;54866;53.458;14.540;2023-02-19T09:16:17;100596.30;;;17.51;40.22
68077;BME280;54866;53.458;14.540;2023-02-19T09:18:47;100599.14;;;18.09;37.60
68077;BME280;54866;53.458;14.540;2023-02-19T09:21:16;100601.98;;;18.72;37.97
68077;BME280;54866;53.458;14.540;2023-02-19T09:23:46;100606.55;;;18.84;38.01
68077;BME280;54866;53.458;14.540;2023-02-19T09:26:15;100602.61;;;19.44;35.17
68077;BME280;54866;53.458;14.540;2023-02-19T09:28:45;100603.54;;;19.36;33.14
68077;BME280;54866;53.458;14.540;2023-02-19T09:31:15;100610.92;;;19.23;33.62
68077;BME280;54866;53.458;14.540;2023-02-19T09:33:46;100623.69;;;19.29;34.94
68077;BME280;54866;53.458;14.540;2023-02-19T09:36:16;100620.21;;;18.83;34.43
68077;BME280;54866;53.458;14.540;2023-02-19T09:38:46;100618.29;;;18.70;33.71
68077;BME280;54866;53.458;14.540;2023-02-19T09:41:19;100618.14;;;18.65;32.16
68077;BME280;54866;53.458;14.540;2023-02-19T09:43:50;100619.98;;;18.84;32.54
68077;BME280;54866;53.458;14.540;2023-02-19T09:46:26;100623.68;;;19.26;32.79
68077;BME280;54866;53.458;14.540;2023-02-19T09:49:00;100620.79;;;19.69;32.79
68077;BME280;54866;53.458;14.540;2023-02-19T09:51:32;100619.44;;;20.30;32.16
68077;BME280;54866;53.458;14.540;2023-02-19T09:54:05;100630.52;;;20.64;31.02
68077;BME280;54866;53.458;14.540;2023-02-19T09:56:36;100632.05;;;21.02;29.90
68077;BME280;54866;53.458;14.540;2023-02-19T09:59:08;100638.23;;;21.29;30.05
68077;BME280;54866;53.458;14.540;2023-02-19T10:01:48;100636.83;;;21.63;29.32
68077;BME280;54866;53.458;14.540;2023-02-19T10:04:21;100637.98;;;21.75;27.45
68077;BME280;54866;53.458;14.540;2023-02-19T10:06:51;100643.74;;;21.50;26.98
68077;BME280;54866;53.458;14.540;2023-02-19T10:09:28;100647.88;;;21.52;27.59
68077;BME280;54866;53.458;14.540;2023-02-19T10:11:58;100658.84;;;20.02;28.90
68077;BME280;54866;53.458;14.540;2023-02-19T10:14:32;100662.88;;;19.64;29.49
68077;BME280;54866;53.458;14.540;2023-02-19T10:17:05;100662.64;;;20.14;29.66
68077;BME280;54866;53.458;14.540;2023-02-19T10:19:36;100665.95;;;20.61;28.84
68077;BME280;54866;53.458;14.540;2023-02-19T10:22:06;100680.37;;;20.85;28.32
68077;BME280;54866;53.458;14.540;2023-02-19T10:24:37;100689.74;;;20.76;28.19
68077;BME280;54866;53.458;14.540;2023-02-19T10:27:13;100688.71;;;20.29;27.88
68077;BME280;54866;53.458;14.540;2023-02-19T10:29:46;100693.29;;;20.38;28.35
68077;BME280;54866;53.458;14.540;2023-02-19T10:32:15;100693.11;;;20.07;27.63
68077;BME280;54866;53.458;14.540;2023-02-19T10:34:48;100702.67;;;20.23;28.30
68077;BME280;54866;53.458;14.540;2023-02-19T10:37:35;100707.83;;;19.40;29.16
68077;BME280;54866;53.458;14.540;2023-02-19T10:40:17;100709.09;;;19.57;29.71
68077;BME280;54866;53.458;14.540;2023-02-19T10:42:49;100711.91;;;19.89;28.36
68077;BME280;54866;53.458;14.540;2023-02-19T10:45:22;100715.98;;;20.35;28.31
68077;BME280;54866;53.458;14.540;2023-02-19T10:47:53;100722.23;;;20.81;28.49
68077;BME280;54866;53.458;14.540;2023-02-19T10:50:26;100729.64;;;20.98;28.33
68077;BME280;54866;53.458;14.540;2023-02-19T10:52:59;100730.45;;;21.12;28.30
68077;BME280;54866;53.458;14.540;2023-02-19T10:55:32;100732.48;;;21.00;26.56
68077;BME280;54866;53.458;14.540;2023-02-19T10:58:15;100731.45;;;20.38;26.69
68077;BME280;54866;53.458;14.540;2023-02-19T11:00:48;100727.91;;;20.02;27.18
68077;BME280;54866;53.458;14.540;2023-02-19T11:03:37;100741.30;;;19.38;27.73
68077;BME280;54866;53.458;14.540;2023-02-19T11:06:09;100745.61;;;18.65;28.53
68077;BME280;54866;53.458;14.540;2023-02-19T11:08:49;100748.28;;;17.95;29.18
68077;BME280;54866;53.458;14.540;2023-02-19T11:11:31;100756.73;;;17.07;30.03
68077;BME280;54866;53.458;14.540;2023-02-19T11:14:04;100753.56;;;17.44;30.16
68077;BME280;54866;53.458;14.540;2023-02-19T11:16:41;100751.88;;;17.38;29.07
68077;BME280;54866;53.458;14.540;2023-02-19T11:19:24;100754.18;;;17.90;29.80
68077;BME280;54866;53.458;14.540;2023-02-19T11:21:55;100751.86;;;18.52;28.75
68077;BME280;54866;53.458;14.540;2023-02-19T11:24:32;100754.60;;;18.59;27.90
68077;BME280;54866;53.458;14.540;2023-02-19T11:27:06;100760.56;;;18.92;28.09
68077;BME280;54866;53.458;14.540;2023-02-19T11:29:45;100765.28;;;19.20;27.78
68077;BME280;54866;53.458;14.540;2023-02-19T11:32:29;100771.95;;;19.40;27.42
68077;BME280;54866;53.458;14.540;2023-02-19T11:35:20;100775.71;;;19.55;27.51
68077;BME280;54866;53.458;14.540;2023-02-19T11:38:00;100786.58;;;19.73;27.75
68077;BME280;54866;53.458;14.540;2023-02-19T11:40:36;100782.42;;;19.89;27.24
68077;BME280;54866;53.458;14.540;2023-02-19T11:43:16;100791.44;;;19.96;26.42
68077;BME280;54866;53.458;14.540;2023-02-19T11:45:53;100795.76;;;19.95;26.97
68077;BME280;54866;53.458;14.540;2023-02-19T11:48:37;100794.85;;;20.09;27.11
68077;BME280;54866;53.458;14.540;2023-02-19T11:51:23;100792.10;;;20.40;27.37
68077;BME280;54866;53.458;14.540;2023-02-19T11:54:07;100792.15;;;20.29;25.54
68077;BME280;54866;53.458;14.540;2023-02-19T11:56:42;100798.92;;;19.77;26.51
68077;BME280;54866;53.458;14.540;2023-02-19T11:59:19;100803.73;;;19.71;27.11
68077;BME280;54866;53.458;14.540;2023-02-19T12:02:10;100805.75;;;19.22;26.69
68077;BME280;54866;53.458;14.540;2023-02-19T12:05:04;100815.79;;;17.62;28.63
68077;BME280;54866;53.458;14.540;2023-02-19T12:07:56;100813.75;;;16.16;29.55
68077;BME280;54866;53.458;14.540;2023-02-19T12:10:36;100828.23;;;15.23;31.19
68077;BME280;54866;53.458;14.540;2023-02-19T12:13:21;100834.19;;;13.95;33.15
68077;BME280;54866;53.458;14.540;2023-02-19T12:16:10;100833.84;;;13.48;34.50
68077;BME280;54866;53.458;14.540;2023-02-19T12:19:16;100831.40;;;13.63;34.08
68077;BME280;54866;53.458;14.540;2023-02-19T12:22:09;100838.93;;;13.66;34.95
68077;BME280;54866;53.458;14.540;2023-02-19T12:24:59;100844.94;;;13.20;35.90
68077;BME280;54866;53.458;14.540;2023-02-19T12:27:43;100840.95;;;13.58;34.52
68077;BME280;54866;53.458;14.540;2023-02-19T12:30:25;100840.63;;;13.71;33.93
68077;BME280;54866;53.458;14.540;2023-02-19T12:33:29;100837.94;;;12.84;34.54
68077;BME280;54866;53.458;14.540;2023-02-19T12:36:10;100853.05;;;11.59;36.67
68077;BME280;54866;53.458;14.540;2023-02-19T12:38:44;100860.43;;;10.85;37.80
68077;BME280;54866;53.458;14.540;2023-02-19T12:41:23;100862.42;;;9.83;38.49
68077;BME280;54866;53.458;14.540;2023-02-19T12:43:57;100866.23;;;9.07;40.14
68077;BME280;54866;53.458;14.540;2023-02-19T12:46:32;100877.11;;;9.37;40.71
68077;BME280;54866;53.458;14.540;2023-02-19T12:49:09;100879.27;;;10.07;40.10
68077;BME280;54866;53.458;14.540;2023-02-19T12:51:42;100886.95;;;10.63;39.38
68077;BME280;54866;53.458;14.540;2023-02-19T12:54:13;100889.98;;;10.99;38.07
68077;BME280;54866;53.458;14.540;2023-02-19T12:56:49;100890.77;;;11.15;37.55
68077;BME280;54866;53.458;14.540;2023-02-19T12:59:25;100887.64;;;11.70;36.31
68077;BME280;54866;53.458;14.540;2023-02-19T13:02:03;100890.70;;;12.00;35.09
68077;BME280;54866;53.458;14.540;2023-02-19T13:04:41;100902.44;;;11.41;35.60
68077;BME280;54866;53.458;14.540;2023-02-19T13:07:16;100903.59;;;10.95;36.36
68077;BME280;54866;53.458;14.540;2023-02-19T13:09:49;100899.05;;;11.06;36.11
68077;BME280;54866;53.458;14.540;2023-02-19T13:12:22;100904.12;;;10.76;36.70